Time;durP1;ratioP1;P1;durP2;ratioP2;P2;SDS_P1;SDS_P2;PMS_P1;PMS_P2;Temp;Humidity;BMP_temperature;BMP_pressure;BME280_temperature;BME280_humidity;BME280_pressure;Samples;Min_cycle;Max_cycle;Signal;HPM_P1;HPM_P2
2023/05/29 00:01:02;;;;;;;16.55;3.20;;;10.50;99.90;;;;;;5068818;28;20423;-56
2023/05/29 00:03:28;;;;;;;9.80;2.22;;;10.50;99.90;;;;;;5050974;28;20048;-58
2023/05/29 00:05:54;;;;;;;14.77;2.63;;;10.50;99.90;;;;;;5051162;28;20483;-59
2023/05/29 00:08:20;;;;;;;14.90;3.03;;;10.50;99.90;;;;;;5069039;28;20051;-57
2023/05/29 00:10:45;;;;;;;12.90;2.33;;;10.50;99.90;;;;;;5072088;28;20048;-58
2023/05/29 00:13:11;;;;;;;17.67;2.88;;;10.50;99.90;;;;;;5073062;28;20411;-58
2023/05/29 00:15:37;;;;;;;12.80;2.92;;;10.40;99.90;;;;;;5054804;28;20511;-59
2023/05/29 00:18:03;;;;;;;15.82;2.38;;;10.40;99.90;;;;;;5072622;28;20111;-57
2023/05/29 00:20:28;;;;;;;15.77;2.78;;;10.40;99.90;;;;;;5072680;28;20036;-59
2023/05/29 00:22:55;;;;;;;15.45;2.70;;;10.40;99.90;;;;;;5072450;28;20041;-57
2023/05/29 00:25:21;;;;;;;17.30;3.80;;;10.30;99.90;;;;;;5054463;28;20041;-57
2023/05/29 00:27:46;;;;;;;15.07;3.60;;;10.30;99.90;;;;;;5054672;28;20040;-57
2023/05/29 00:30:12;;;;;;;17.52;3.38;;;10.30;99.90;;;;;;5054562;28;20106;-57
2023/05/29 00:32:38;;;;;;;15.75;3.42;;;10.30;99.90;;;;;;5072289;28;20395;-57
2023/05/29 00:35:07;;;;;;;13.60;2.95;;;10.30;99.90;;;;;;5020936;28;20051;-57
2023/05/29 00:37:33;;;;;;;17.42;3.47;;;10.30;99.90;;;;;;5055110;28;20556;-57
2023/05/29 00:39:58;;;;;;;11.10;2.40;;;10.30;99.90;;;;;;5021519;28;20120;-58
2023/05/29 00:42:24;;;;;;;12.73;2.70;;;10.30;99.90;;;;;;5037995;28;20040;-58
2023/05/29 00:44:50;;;;;;;18.45;3.08;;;10.30;99.90;;;;;;5071533;28;20079;-57
2023/05/29 00:47:16;;;;;;;14.77;3.25;;;10.20;99.90;;;;;;5054357;28;20047;-57
2023/05/29 00:49:42;;;;;;;17.50;3.90;;;10.20;99.90;;;;;;5072517;28;20082;-58
2023/05/29 00:52:09;;;;;;;11.70;2.45;;;10.20;99.90;;;;;;5054092;28;20041;-57
2023/05/29 00:54:36;;;;;;;16.25;2.83;;;10.20;99.90;;;;;;5037513;28;20051;-57
2023/05/29 00:57:04;;;;;;;14.82;2.97;;;10.10;99.90;;;;;;5054353;28;20041;-57
2023/05/29 00:59:32;;;;;;;15.05;3.05;;;10.10;99.90;;;;;;5071224;28;20033;-57
2023/05/29 01:01:59;;;;;;;15.70;2.80;;;10.10;99.90;;;;;;5072312;28;20043;-57
2023/05/29 01:04:28;;;;;;;16.90;4.00;;;10.10;99.90;;;;;;5053919;28;20059;-58
2023/05/29 01:06:55;;;;;;;15.25;2.83;;;10.10;99.90;;;;;;5072304;28;20448;-58
2023/05/29 01:09:21;;;;;;;16.33;3.15;;;10.10;99.90;;;;;;5054661;28;20479;-58
2023/05/29 01:12:14;;;;;;;13.77;2.60;;;10.00;99.90;;;;;;5071688;28;20052;-57
2023/05/29 01:15:14;;;;;;;10.07;2.80;;;10.00;99.90;;;;;;5072146;28;20037;-58
2023/05/29 01:18:06;;;;;;;21.60;3.25;;;10.00;99.90;;;;;;5053875;28;20115;-57
2023/05/29 01:20:42;;;;;;;14.00;2.63;;;10.00;99.90;;;;;;5053253;28;20045;-58
2023/05/29 01:23:44;;;;;;;11.98;3.00;;;9.90;99.90;;;;;;5071503;28;20510;-58
2023/05/29 01:26:37;;;;;;;19.10;3.72;;;9.90;99.90;;;;;;5036486;28;20496;-58
2023/05/29 01:29:06;;;;;;;13.07;3.17;;;9.90;99.90;;;;;;5071553;28;20044;-58
2023/05/29 01:31:34;;;;;;;19.27;4.70;;;9.90;99.90;;;;;;5053548;28;20040;-57
2023/05/29 01:34:00;;;;;;;13.93;2.65;;;9.90;99.90;;;;;;5053649;28;20075;-57
2023/05/29 01:36:26;;;;;;;19.77;4.07;;;10.00;99.90;;;;;;5036887;28;20040;-57
2023/05/29 01:38:54;;;;;;;16.17;3.38;;;10.00;99.90;;;;;;5071650;28;20033;-57
2023/05/29 01:41:23;;;;;;;15.82;2.92;;;10.00;99.90;;;;;;5071068;28;20076;-57
2023/05/29 01:43:50;;;;;;;15.63;2.88;;;10.00;99.90;;;;;;5053382;28;20044;-56
2023/05/29 01:46:20;;;;;;;17.17;3.00;;;10.00;99.90;;;;;;5071251;28;20496;-57
2023/05/29 01:48:46;;;;;;;14.60;3.15;;;10.00;99.90;;;;;;5053116;28;20044;-57
2023/05/29 01:51:12;;;;;;;17.63;3.47;;;10.00;99.90;;;;;;5071317;28;20032;-57
2023/05/29 01:53:39;;;;;;;13.13;2.78;;;10.00;99.90;;;;;;5070902;28;20032;-58
2023/05/29 01:56:07;;;;;;;19.30;3.40;;;10.10;99.90;;;;;;5053221;28;20347;-58
2023/05/29 01:58:38;;;;;;;16.70;3.10;;;10.10;99.90;;;;;;5071124;28;20400;-58
2023/05/29 02:01:06;;;;;;;18.13;3.72;;;10.10;99.90;;;;;;5052422;28;20041;-57
2023/05/29 02:03:32;;;;;;;16.95;3.67;;;10.00;99.90;;;;;;5070553;28;20087;-55
2023/05/29 02:05:59;;;;;;;20.40;4.03;;;10.00;99.90;;;;;;5070742;28;20040;-58
2023/05/29 02:08:25;;;;;;;12.88;2.50;;;10.00;99.90;;;;;;5070910;28;20442;-58
2023/05/29 02:10:51;;;;;;;13.77;3.22;;;10.00;99.90;;;;;;5070558;28;20547;-59
2023/05/29 02:13:17;;;;;;;17.70;3.38;;;10.00;99.90;;;;;;5052605;28;20040;-58
2023/05/29 02:15:43;;;;;;;19.17;3.17;;;10.00;99.90;;;;;;5052897;28;20403;-58
2023/05/29 02:18:17;;;;;;;19.38;3.42;;;9.90;99.90;;;;;;5052401;28;20068;-57
2023/05/29 02:20:42;;;;;;;17.30;3.75;;;9.90;99.90;;;;;;5070938;28;20036;-57
2023/05/29 02:23:09;;;;;;;12.93;2.50;;;9.90;99.90;;;;;;5070373;28;20514;-56
2023/05/29 02:25:35;;;;;;;18.08;3.53;;;9.90;99.90;;;;;;5052670;28;20040;-57
2023/05/29 02:28:01;;;;;;;16.20;3.13;;;9.90;99.90;;;;;;5070503;28;20083;-58
2023/05/29 02:30:28;;;;;;;15.02;3.15;;;9.90;99.90;;;;;;5070228;28;20068;-57
2023/05/29 02:32:54;;;;;;;17.35;3.90;;;9.90;99.90;;;;;;5034784;28;20044;-58
2023/05/29 02:35:22;;;;;;;16.15;3.65;;;10.00;99.90;;;;;;5051951;28;20646;-58
2023/05/29 02:37:49;;;;;;;17.38;3.38;;;10.00;99.90;;;;;;5052144;28;20052;-57
2023/05/29 02:40:15;;;;;;;12.02;4.13;;;10.00;99.90;;;;;;5052208;28;20119;-57
2023/05/29 02:42:40;;;;;;;17.95;3.78;;;10.00;99.90;;;;;;5052324;28;20403;-59
2023/05/29 02:45:07;;;;;;;24.08;3.75;;;10.00;99.90;;;;;;5070081;28;20036;-58
2023/05/29 02:47:32;;;;;;;15.90;3.28;;;10.00;99.90;;;;;;5052158;28;20124;-59
2023/05/29 02:49:58;;;;;;;13.07;3.00;;;10.10;99.90;;;;;;5035874;28;20179;-59
2023/05/29 02:52:24;;;;;;;14.40;2.58;;;10.10;99.90;;;;;;5052169;28;20037;-58
2023/05/29 02:54:50;;;;;;;16.08;3.20;;;10.10;99.90;;;;;;5052206;28;20129;-56
2023/05/29 02:57:15;;;;;;;12.40;3.22;;;10.20;99.90;;;;;;5069931;28;20040;-57
2023/05/29 02:59:44;;;;;;;14.25;2.95;;;10.20;99.90;;;;;;5052085;28;20039;-58
2023/05/29 03:02:09;;;;;;;17.25;2.72;;;10.20;99.90;;;;;;5035202;28;20135;-56
2023/05/29 03:04:35;;;;;;;17.35;3.33;;;10.20;99.90;;;;;;5069436;28;20182;-57
2023/05/29 03:07:01;;;;;;;19.42;3.78;;;10.20;99.90;;;;;;5051784;28;20494;-57
2023/05/29 03:09:26;;;;;;;16.98;3.22;;;10.20;99.90;;;;;;5037256;23;20044;-61
2023/05/29 03:11:52;;;;;;;12.45;2.63;;;10.10;99.90;;;;;;5023877;28;20441;-60
2023/05/29 03:14:18;;;;;;;16.88;3.45;;;10.10;99.90;;;;;;5042137;28;20072;-60
2023/05/29 03:16:45;;;;;;;14.23;2.53;;;10.10;99.90;;;;;;5029016;28;20040;-60
2023/05/29 03:19:14;;;;;;;13.77;3.30;;;10.00;99.90;;;;;;5043019;28;20098;-63
2023/05/29 03:21:40;;;;;;;13.88;2.42;;;10.00;99.90;;;;;;5046821;28;20052;-60
2023/05/29 03:24:06;;;;;;;13.43;2.75;;;10.00;99.90;;;;;;5039375;28;20396;-61
2023/05/29 03:26:32;;;;;;;12.10;2.88;;;10.00;99.90;;;;;;5039362;28;20132;-61
2023/05/29 03:28:57;;;;;;;16.23;3.00;;;10.00;99.90;;;;;;5028898;28;20131;-60
2023/05/29 03:31:23;;;;;;;11.63;3.55;;;10.10;99.90;;;;;;5022371;28;20048;-60
2023/05/29 03:33:49;;;;;;;12.45;2.42;;;10.10;99.90;;;;;;5006975;28;20073;-60
2023/05/29 03:36:18;;;;;;;13.65;2.88;;;10.20;99.90;;;;;;5027875;28;20033;-60
2023/05/29 03:38:44;;;;;;;10.88;2.50;;;10.20;99.90;;;;;;5025810;28;20475;-61
2023/05/29 03:41:13;;;;;;;14.02;2.70;;;10.20;99.90;;;;;;5037461;28;20033;-61
2023/05/29 03:43:39;;;;;;;15.18;3.15;;;10.30;99.90;;;;;;5041538;28;20036;-59
2023/05/29 03:46:04;;;;;;;17.15;3.00;;;10.30;99.90;;;;;;5046678;28;20029;-63
2023/05/29 03:48:30;;;;;;;16.17;3.95;;;10.40;99.90;;;;;;5044139;28;20487;-63
2023/05/29 03:50:56;;;;;;;14.93;2.88;;;10.40;99.90;;;;;;5041900;28;20531;-62
2023/05/29 03:53:22;;;;;;;15.38;3.92;;;10.40;99.90;;;;;;5010924;28;20128;-63
2023/05/29 03:55:47;;;;;;;16.80;3.53;;;10.50;99.90;;;;;;5012488;28;20041;-63
2023/05/29 03:58:14;;;;;;;15.77;2.85;;;10.50;99.90;;;;;;5020386;28;20068;-63
2023/05/29 04:00:40;;;;;;;12.55;2.70;;;10.50;99.90;;;;;;5013488;28;20316;-63
2023/05/29 04:03:06;;;;;;;14.48;2.88;;;10.50;99.90;;;;;;5041516;28;20049;-63
2023/05/29 04:05:31;;;;;;;12.95;3.17;;;10.60;99.90;;;;;;5043415;28;20049;-61
2023/05/29 04:07:57;;;;;;;15.20;2.75;;;10.70;99.90;;;;;;5042088;28;20044;-63
2023/05/29 04:10:24;;;;;;;18.38;2.78;;;10.60;99.90;;;;;;5041735;28;20044;-62
2023/05/29 04:12:50;;;;;;;10.13;2.33;;;10.60;99.90;;;;;;5020233;28;20132;-63
2023/05/29 04:15:16;;;;;;;15.02;2.55;;;10.60;99.90;;;;;;5025555;28;20049;-63
2023/05/29 04:17:42;;;;;;;18.05;3.85;;;10.70;99.90;;;;;;5028465;28;20067;-63
2023/05/29 04:20:11;;;;;;;15.55;3.08;;;10.70;99.90;;;;;;5044170;28;20076;-62
2023/05/29 04:22:37;;;;;;;12.80;2.75;;;10.70;99.90;;;;;;5048490;28;20294;-62
2023/05/29 04:25:04;;;;;;;13.88;3.55;;;10.80;99.90;;;;;;5011514;28;20142;-63
2023/05/29 04:27:32;;;;;;;15.15;2.47;;;10.80;99.90;;;;;;5028844;28;20041;-63
2023/05/29 04:30:02;;;;;;;16.73;3.08;;;10.80;99.90;;;;;;5029826;28;20594;-63
2023/05/29 04:32:27;;;;;;;14.48;2.17;;;10.80;99.90;;;;;;5046746;28;20049;-63
2023/05/29 04:34:53;;;;;;;15.02;3.15;;;10.90;99.90;;;;;;5031039;28;20395;-63
2023/05/29 04:37:21;;;;;;;12.70;2.35;;;10.90;99.90;;;;;;5030276;28;20041;-63
2023/05/29 04:39:46;;;;;;;10.70;2.40;;;11.00;99.90;;;;;;5045490;28;20037;-63
2023/05/29 04:42:14;;;;;;;12.15;3.47;;;11.00;99.90;;;;;;5031614;28;20045;-63
2023/05/29 04:44:43;;;;;;;16.00;2.97;;;11.00;99.90;;;;;;5038789;28;20083;-63
2023/05/29 04:47:08;;;;;;;12.25;3.40;;;11.00;99.90;;;;;;5047442;28;20123;-63
2023/05/29 04:49:34;;;;;;;15.10;3.50;;;11.00;99.90;;;;;;5038176;28;20116;-63
2023/05/29 04:52:00;;;;;;;14.80;3.33;;;11.10;99.90;;;;;;4994295;28;20041;-63
2023/05/29 04:54:29;;;;;;;18.08;2.85;;;11.20;99.90;;;;;;5043868;28;20095;-63
2023/05/29 04:56:54;;;;;;;11.98;2.72;;;11.10;99.90;;;;;;5025755;28;20400;-63
2023/05/29 04:59:20;;;;;;;12.50;2.42;;;11.10;99.90;;;;;;5040178;28;20028;-63
2023/05/29 05:01:47;;;;;;;15.85;3.15;;;11.20;99.90;;;;;;5048681;28;20039;-63
2023/05/29 05:04:13;;;;;;;18.50;3.00;;;11.20;99.90;;;;;;5026918;28;20052;-63
2023/05/29 05:06:38;;;;;;;16.27;3.15;;;11.20;99.90;;;;;;5042332;28;20512;-63
2023/05/29 05:09:04;;;;;;;13.60;2.80;;;11.10;99.90;;;;;;5030081;28;20120;-63
2023/05/29 05:11:30;;;;;;;18.50;3.38;;;11.10;99.90;;;;;;5040326;28;20081;-61
2023/05/29 05:13:56;;;;;;;11.10;2.75;;;11.20;99.90;;;;;;5025024;28;20124;-63
2023/05/29 05:16:21;;;;;;;8.57;2.42;;;11.10;99.90;;;;;;5051779;28;20041;-63
2023/05/29 05:18:47;;;;;;;16.23;3.42;;;11.20;99.90;;;;;;5043388;28;20550;-63
2023/05/29 05:21:13;;;;;;;12.32;2.53;;;11.20;99.90;;;;;;5040870;28;20051;-63
2023/05/29 05:23:38;;;;;;;12.93;2.83;;;11.20;99.90;;;;;;5011692;28;20045;-62
2023/05/29 05:26:04;;;;;;;15.50;4.53;;;11.20;99.90;;;;;;5047343;28;20116;-62
2023/05/29 05:28:30;;;;;;;12.65;2.70;;;11.20;99.90;;;;;;5044947;28;20104;-63
2023/05/29 05:30:56;;;;;;;14.50;3.10;;;11.30;99.90;;;;;;5023235;28;20029;-62
2023/05/29 05:33:22;;;;;;;14.57;3.00;;;11.30;99.90;;;;;;5031949;28;20049;-63
2023/05/29 05:35:50;;;;;;;13.65;2.92;;;11.40;99.90;;;;;;5003450;28;20037;-62
2023/05/29 05:38:16;;;;;;;13.23;2.70;;;11.40;99.90;;;;;;5048028;28;20049;-63
2023/05/29 05:40:44;;;;;;;17.13;3.50;;;11.50;99.90;;;;;;5008466;28;20041;-63
2023/05/29 05:43:10;;;;;;;16.45;3.45;;;11.50;99.90;;;;;;5028133;28;20037;-63
2023/05/29 05:56:50;;;;;;;15.18;3.22;;;11.70;99.90;;;;;;5039966;28;20027;-62
2023/05/29 05:59:16;;;;;;;12.05;3.60;;;11.70;99.90;;;;;;5043869;28;20751;-62
2023/05/29 06:01:44;;;;;;;18.48;3.67;;;11.70;99.90;;;;;;5039587;28;20463;-63
2023/05/29 06:04:10;;;;;;;13.90;3.38;;;11.70;99.90;;;;;;5028043;28;20049;-63
2023/05/29 06:06:36;;;;;;;12.88;3.70;;;11.80;99.90;;;;;;5026021;28;20463;-63
2023/05/29 06:09:02;;;;;;;16.83;3.55;;;11.80;99.90;;;;;;5042611;28;20503;-63
2023/05/29 06:11:27;;;;;;;15.68;3.95;;;11.80;99.90;;;;;;5037499;28;20072;-62
2023/05/29 06:13:53;;;;;;;18.65;3.95;;;11.80;99.90;;;;;;5008933;28;20048;-63
2023/05/29 06:16:19;;;;;;;17.15;2.85;;;11.80;99.90;;;;;;5021269;28;20486;-63
2023/05/29 06:18:45;;;;;;;19.58;3.70;;;11.80;99.90;;;;;;5034950;28;20033;-61
2023/05/29 06:21:12;;;;;;;14.63;3.60;;;11.80;99.90;;;;;;5003317;28;20303;-63
2023/05/29 06:23:38;;;;;;;16.95;3.08;;;11.90;99.90;;;;;;5045689;28;20048;-62
2023/05/29 06:26:04;;;;;;;17.08;3.50;;;12.00;99.90;;;;;;5048224;28;20284;-63
2023/05/29 06:28:30;;;;;;;21.85;3.55;;;12.00;99.90;;;;;;5043462;28;20037;-63
2023/05/29 06:30:56;;;;;;;20.67;3.80;;;12.10;99.90;;;;;;5027215;28;20124;-63
2023/05/29 06:33:21;;;;;;;23.30;4.20;;;12.20;99.90;;;;;;5044210;28;20072;-63
2023/05/29 06:35:50;;;;;;;18.85;3.70;;;12.30;99.90;;;;;;5021468;28;20154;-63
2023/05/29 06:38:22;;;;;;;16.42;4.07;;;12.40;99.90;;;;;;5010725;28;20128;-63
2023/05/29 06:40:48;;;;;;;13.77;3.67;;;12.50;99.90;;;;;;5021947;28;20052;-63
2023/05/29 06:43:14;;;;;;;15.15;4.13;;;12.60;99.90;;;;;;5008959;28;20084;-63
2023/05/29 06:45:40;;;;;;;18.65;4.47;;;12.70;99.90;;;;;;5022740;28;20173;-63
2023/05/29 06:48:06;;;;;;;11.00;3.05;;;12.70;99.90;;;;;;5040426;28;20064;-62
2023/05/29 06:50:33;;;;;;;14.55;3.50;;;12.70;99.90;;;;;;5021920;28;20480;-62
2023/05/29 06:52:59;;;;;;;17.80;4.70;;;12.70;99.90;;;;;;5026468;28;20362;-63
2023/05/29 06:55:25;;;;;;;17.30;4.03;;;12.70;99.90;;;;;;5041607;28;20029;-61
2023/05/29 06:57:50;;;;;;;15.60;3.47;;;12.70;99.90;;;;;;5035539;28;20443;-62
2023/05/29 07:00:17;;;;;;;29.08;4.25;;;12.80;99.90;;;;;;5024470;28;20514;-63
2023/05/29 07:02:43;;;;;;;17.88;5.10;;;12.80;99.90;;;;;;5043850;28;20365;-63
2023/05/29 07:05:09;;;;;;;19.33;5.00;;;12.90;99.90;;;;;;5047319;28;20033;-63
2023/05/29 07:07:34;;;;;;;23.90;4.28;;;12.90;99.90;;;;;;5044911;28;20427;-63
2023/05/29 07:10:00;;;;;;;16.30;4.10;;;13.00;99.90;;;;;;5002771;28;20037;-62
2023/05/29 07:12:26;;;;;;;19.20;4.13;;;13.10;99.90;;;;;;5001482;28;20275;-63
2023/05/29 07:14:52;;;;;;;24.42;5.15;;;13.10;99.90;;;;;;5024387;28;20048;-62
2023/05/29 07:17:18;;;;;;;16.13;3.47;;;13.20;99.90;;;;;;5043991;28;20382;-63
2023/05/29 07:19:49;;;;;;;18.20;4.45;;;13.10;99.90;;;;;;5042533;28;20104;-63
2023/05/29 07:22:15;;;;;;;23.20;4.93;;;13.10;99.90;;;;;;5022510;28;20045;-63
2023/05/29 07:24:41;;;;;;;15.18;3.67;;;13.10;99.90;;;;;;5009394;28;20159;-63
2023/05/29 07:27:06;;;;;;;17.67;4.28;;;13.00;99.90;;;;;;5024554;28;20464;-60
2023/05/29 07:29:32;;;;;;;22.15;4.20;;;13.00;99.90;;;;;;5043103;28;20703;-62
2023/05/29 07:31:58;;;;;;;16.05;4.00;;;13.00;99.90;;;;;;5042051;28;20125;-62
2023/05/29 07:34:24;;;;;;;19.58;4.45;;;13.20;99.90;;;;;;5044140;28;20041;-62
2023/05/29 07:37:11;;;;;;;12.45;4.15;;;13.30;99.90;;;;;;5023640;28;20137;-62
2023/05/29 07:39:37;;;;;;;20.27;3.63;;;13.50;99.90;;;;;;5038461;28;20040;-62
2023/05/29 07:42:03;;;;;;;18.92;3.70;;;13.60;99.90;;;;;;5027094;28;20040;-63
2023/05/29 07:44:29;;;;;;;19.50;5.32;;;13.60;99.90;;;;;;5045781;28;20488;-63
2023/05/29 07:46:54;;;;;;;19.77;4.88;;;13.60;99.90;;;;;;5044186;28;20099;-62
2023/05/29 07:49:21;;;;;;;23.02;4.20;;;13.60;99.90;;;;;;5046035;28;20071;-63
2023/05/29 07:51:46;;;;;;;18.67;5.05;;;13.60;99.90;;;;;;5023966;28;20480;-63
2023/05/29 07:54:12;;;;;;;21.55;3.65;;;13.70;99.90;;;;;;5043246;28;20216;-63
2023/05/29 07:56:40;;;;;;;18.60;4.43;;;13.60;99.90;;;;;;5043631;28;20040;-62
2023/05/29 07:59:06;;;;;;;22.48;3.83;;;13.60;99.90;;;;;;5045880;28;20044;-63
2023/05/29 08:01:33;;;;;;;13.13;3.58;;;13.60;99.90;;;;;;5046305;28;20045;-63
2023/05/29 08:03:59;;;;;;;20.65;4.25;;;13.60;99.90;;;;;;5022518;28;20048;-63
2023/05/29 08:06:25;;;;;;;18.50;3.67;;;13.50;99.90;;;;;;5020617;28;20467;-63
2023/05/29 08:08:51;;;;;;;24.60;4.45;;;13.60;99.90;;;;;;5025932;28;20044;-63
2023/05/29 08:11:18;;;;;;;22.05;4.30;;;13.50;99.90;;;;;;5039874;28;20033;-63
2023/05/29 08:13:44;;;;;;;18.83;4.07;;;13.50;99.90;;;;;;5044513;28;20041;-63
2023/05/29 08:16:10;;;;;;;17.48;4.38;;;13.60;99.90;;;;;;5038454;28;20492;-61
2023/05/29 08:18:36;;;;;;;20.33;5.15;;;13.70;99.90;;;;;;5031423;28;20068;-62
2023/05/29 08:21:02;;;;;;;19.05;3.63;;;13.70;99.90;;;;;;5012105;28;20041;-62
2023/05/29 08:23:28;;;;;;;16.95;3.78;;;13.80;99.90;;;;;;5042650;28;20049;-61
2023/05/29 08:25:53;;;;;;;19.80;5.07;;;13.80;99.90;;;;;;5036143;28;20041;-62
2023/05/29 08:28:20;;;;;;;16.52;3.92;;;13.70;99.90;;;;;;5039582;28;20076;-62
2023/05/29 08:30:46;;;;;;;27.05;5.25;;;13.70;99.90;;;;;;5027345;28;20049;-63
2023/05/29 08:33:12;;;;;;;20.40;3.92;;;13.60;99.90;;;;;;5050295;28;20393;-63
2023/05/29 08:35:38;;;;;;;13.13;3.47;;;13.60;99.90;;;;;;5048436;28;20293;-63
2023/05/29 08:38:03;;;;;;;16.65;4.10;;;13.60;99.90;;;;;;5044415;28;20068;-63
2023/05/29 08:40:30;;;;;;;15.82;3.67;;;13.60;99.90;;;;;;5012202;28;20308;-62
2023/05/29 08:43:22;;;;;;;18.92;3.72;;;13.70;99.90;;;;;;5031100;28;20140;-62
2023/05/29 08:45:53;;;;;;;18.33;4.32;;;13.90;99.90;;;;;;5041848;28;20082;-62
2023/05/29 08:48:22;;;;;;;20.55;3.67;;;14.00;99.90;;;;;;5049748;28;20068;-63
2023/05/29 08:50:51;;;;;;;15.68;3.95;;;14.00;99.90;;;;;;5046667;28;20065;-62
2023/05/29 08:53:18;;;;;;;18.38;3.53;;;14.10;99.90;;;;;;5025586;28;20071;-63
2023/05/29 08:55:46;;;;;;;25.42;4.72;;;14.10;99.90;;;;;;5026735;28;20057;-62
2023/05/29 08:58:14;;;;;;;19.00;3.75;;;14.10;99.90;;;;;;5046526;28;20037;-63
2023/05/29 09:00:40;;;;;;;15.50;3.92;;;14.10;99.90;;;;;;5045860;28;20033;-63
2023/05/29 09:03:07;;;;;;;15.18;4.00;;;14.10;99.90;;;;;;5011148;28;20111;-63
2023/05/29 09:05:33;;;;;;;13.80;3.92;;;13.90;99.90;;;;;;5026879;28;20125;-62
2023/05/29 09:08:00;;;;;;;18.08;3.92;;;13.80;99.90;;;;;;5044966;28;20040;-62
2023/05/29 09:10:26;;;;;;;22.08;3.95;;;13.80;99.90;;;;;;5032518;28;20071;-63
2023/05/29 09:12:51;;;;;;;16.67;4.45;;;13.90;99.90;;;;;;5067309;23;20036;-60
2023/05/29 09:15:18;;;;;;;18.95;4.40;;;13.80;99.90;;;;;;5083411;28;20564;-61
2023/05/29 09:17:57;;;;;;;16.35;3.97;;;13.90;99.90;;;;;;5088961;28;20103;-59
2023/05/29 09:20:27;;;;;;;23.00;4.88;;;14.00;99.90;;;;;;5073601;28;20043;-58
2023/05/29 09:22:58;;;;;;;26.30;5.13;;;14.00;99.90;;;;;;5066710;28;20044;-59
2023/05/29 09:25:29;;;;;;;19.30;5.07;;;14.00;99.90;;;;;;5075977;28;20051;-61
2023/05/29 09:27:58;;;;;;;22.25;5.22;;;14.10;99.90;;;;;;5054792;28;20394;-59
2023/05/29 09:30:50;;;;;;;23.40;4.85;;;14.20;99.90;;;;;;5054040;28;20071;-59
2023/05/29 09:33:16;;;;;;;20.00;4.10;;;14.30;99.90;;;;;;5062714;28;20091;-61
2023/05/29 09:35:47;;;;;;;24.55;4.22;;;14.40;99.90;;;;;;5067690;28;20060;-61
2023/05/29 09:38:15;;;;;;;18.65;4.13;;;14.40;99.90;;;;;;5082783;28;20032;-59
2023/05/29 09:40:42;;;;;;;20.35;3.58;;;14.50;99.90;;;;;;5074859;28;20075;-58
2023/05/29 09:43:19;;;;;;;18.58;4.15;;;14.50;99.90;;;;;;5051844;28;20046;-59
2023/05/29 09:45:49;;;;;;;21.38;4.40;;;14.50;99.60;;;;;;5088601;28;20040;-60
2023/05/29 09:48:22;;;;;;;20.25;4.07;;;14.40;99.90;;;;;;5080390;28;20043;-61
2023/05/29 09:50:48;;;;;;;18.02;4.05;;;14.50;99.90;;;;;;5070461;28;20063;-58
2023/05/29 09:53:19;;;;;;;16.42;3.38;;;14.60;99.90;;;;;;5052364;28;20087;-59
2023/05/29 09:55:48;;;;;;;18.80;4.72;;;14.70;99.90;;;;;;5052022;28;20044;-61
2023/05/29 09:58:15;;;;;;;21.98;4.32;;;14.80;99.90;;;;;;5074394;28;20047;-59
2023/05/29 10:00:44;;;;;;;19.13;4.57;;;14.90;99.90;;;;;;5090800;28;20040;-58
2023/05/29 10:03:14;;;;;;;15.90;4.15;;;15.00;99.90;;;;;;5090668;28;20097;-59
2023/05/29 10:05:40;;;;;;;16.65;4.20;;;15.00;99.90;;;;;;5068848;28;20055;-58
2023/05/29 10:08:13;;;;;;;15.63;4.95;;;15.00;99.70;;;;;;5056089;28;20035;-61
2023/05/29 10:10:43;;;;;;;18.63;4.47;;;15.00;99.20;;;;;;5071137;28;20527;-58
2023/05/29 10:13:13;;;;;;;17.83;4.00;;;15.10;99.40;;;;;;5086844;28;20048;-58
2023/05/29 10:15:42;;;;;;;19.23;4.50;;;15.10;99.40;;;;;;5087881;28;20040;-59
2023/05/29 10:18:26;;;;;;;18.13;4.07;;;15.30;99.80;;;;;;5070984;28;20656;-59
2023/05/29 10:20:56;;;;;;;9.90;3.20;;;15.50;99.20;;;;;;5065293;28;20032;-58
2023/05/29 10:23:24;;;;;;;21.55;4.65;;;15.40;98.90;;;;;;5070108;28;20040;-58
2023/05/29 10:25:59;;;;;;;19.42;3.97;;;15.50;99.10;;;;;;5067083;28;20040;-58
2023/05/29 10:28:28;;;;;;;16.15;3.60;;;15.70;99.00;;;;;;5070274;28;20495;-61
2023/05/29 10:31:01;;;;;;;22.88;4.28;;;15.80;98.90;;;;;;5071394;28;20479;-59
2023/05/29 10:33:40;;;;;;;15.55;3.60;;;16.00;98.70;;;;;;5071811;28;20055;-59
2023/05/29 10:36:18;;;;;;;19.88;3.72;;;16.10;98.30;;;;;;5086358;28;20040;-58
2023/05/29 10:38:46;;;;;;;17.67;3.55;;;16.20;97.90;;;;;;5082719;28;20047;-61
2023/05/29 10:41:27;;;;;;;17.13;3.63;;;16.20;98.00;;;;;;5071375;28;20110;-58
2023/05/29 10:44:03;;;;;;;18.77;4.15;;;16.30;98.50;;;;;;5055975;28;20563;-59
2023/05/29 10:46:52;;;;;;;20.60;4.53;;;16.50;98.00;;;;;;5083486;28;20043;-61
2023/05/29 10:49:18;;;;;;;13.45;3.65;;;16.50;97.50;;;;;;5060973;28;20388;-59
2023/05/29 10:51:44;;;;;;;16.10;4.68;;;16.40;97.20;;;;;;5086051;28;20144;-58
2023/05/29 10:54:10;;;;;;;15.02;3.88;;;16.40;97.50;;;;;;5090219;28;20032;-59
2023/05/29 10:56:37;;;;;;;14.70;3.42;;;16.20;97.00;;;;;;5071255;28;20475;-61
2023/05/29 10:59:03;;;;;;;9.70;3.13;;;16.30;97.50;;;;;;5087482;28;20040;-59
2023/05/29 11:01:30;;;;;;;15.25;3.83;;;16.40;97.40;;;;;;5088678;28;20058;-58
2023/05/29 11:04:22;;;;;;;17.98;4.15;;;16.50;96.80;;;;;;5092479;28;20052;-58
2023/05/29 11:06:48;;;;;;;16.15;3.97;;;16.70;97.10;;;;;;5076841;28;20509;-60
2023/05/29 11:09:27;;;;;;;16.63;3.63;;;16.90;97.30;;;;;;5088115;28;20044;-60
2023/05/29 11:12:11;;;;;;;16.33;3.47;;;17.00;97.60;;;;;;5089059;28;20573;-58
2023/05/29 11:15:02;;;;;;;18.30;4.78;;;17.10;96.70;;;;;;5082188;28;20049;-61
2023/05/29 11:17:32;;;;;;;16.60;4.07;;;16.90;96.10;;;;;;5088409;28;20498;-60
2023/05/29 11:20:03;;;;;;;15.55;3.78;;;16.80;96.50;;;;;;5068470;28;20118;-60
2023/05/29 11:22:46;;;;;;;15.30;3.65;;;16.80;96.80;;;;;;5089352;28;20032;-61
2023/05/29 11:25:14;;;;;;;19.42;4.00;;;16.60;96.60;;;;;;5087881;28;20038;-59
2023/05/29 11:27:40;;;;;;;15.63;4.20;;;16.70;97.00;;;;;;5068991;28;20477;-59
2023/05/29 11:30:07;;;;;;;19.08;3.58;;;17.00;97.50;;;;;;5058643;28;20040;-59
2023/05/29 11:32:36;;;;;;;15.70;4.50;;;17.20;96.90;;;;;;5067078;28;20040;-61
2023/05/29 11:35:08;;;;;;;15.00;3.58;;;17.30;96.40;;;;;;5066558;28;20501;-61
2023/05/29 11:37:35;;;;;;;17.05;3.78;;;17.20;96.00;;;;;;5069624;28;20040;-58
2023/05/29 11:40:08;;;;;;;14.15;4.03;;;17.20;96.50;;;;;;5069858;28;20051;-58
2023/05/29 11:42:35;;;;;;;12.43;3.42;;;17.30;96.30;;;;;;5083584;28;20716;-59
2023/05/29 11:45:16;;;;;;;21.80;4.82;;;17.40;96.50;;;;;;5052787;28;20084;-61
2023/05/29 11:47:55;;;;;;;13.68;3.88;;;17.60;95.80;;;;;;5046570;28;20375;-58
2023/05/29 11:50:22;;;;;;;16.70;4.00;;;17.50;95.50;;;;;;5069733;28;20101;-59
2023/05/29 11:52:48;;;;;;;21.08;4.82;;;17.60;96.00;;;;;;5067657;28;20505;-61
2023/05/29 11:55:14;;;;;;;14.75;3.55;;;17.60;95.50;;;;;;5075257;28;20043;-61
2023/05/29 11:57:40;;;;;;;16.75;3.30;;;17.70;95.60;;;;;;5070100;28;20035;-58
2023/05/29 12:00:07;;;;;;;15.93;4.05;;;17.60;95.20;;;;;;5071310;28;20169;-58
2023/05/29 12:02:33;;;;;;;17.95;3.72;;;17.50;95.10;;;;;;5087428;28;20099;-58
2023/05/29 12:05:06;;;;;;;12.95;3.50;;;17.60;95.30;;;;;;5068824;28;20083;-58
2023/05/29 12:07:32;;;;;;;12.70;4.15;;;17.60;95.10;;;;;;5056866;28;20044;-60
2023/05/29 12:10:09;;;;;;;18.73;4.80;;;17.60;95.40;;;;;;5084146;28;20043;-60
2023/05/29 12:12:35;;;;;;;13.93;3.63;;;17.70;95.30;;;;;;5090152;28;20105;-59
2023/05/29 12:15:05;;;;;;;13.85;3.40;;;17.80;95.40;;;;;;5091353;28;20040;-59
2023/05/29 12:17:31;;;;;;;15.13;3.92;;;17.70;94.70;;;;;;5090823;28;20036;-59
2023/05/29 12:19:57;;;;;;;13.25;3.33;;;17.80;95.10;;;;;;5097765;28;20032;-61
2023/05/29 12:22:34;;;;;;;17.38;3.70;;;18.10;95.30;;;;;;5073426;28;20067;-61
2023/05/29 12:25:08;;;;;;;13.30;2.83;;;18.20;94.70;;;;;;5083918;28;20044;-58
2023/05/29 12:27:41;;;;;;;13.05;3.03;;;18.20;93.90;;;;;;5091584;28;20076;-59
2023/05/29 12:30:08;;;;;;;14.68;3.40;;;18.20;94.40;;;;;;5092676;28;20040;-61
2023/05/29 12:32:36;;;;;;;13.68;3.88;;;18.10;93.90;;;;;;5071470;28;20526;-59
2023/05/29 12:35:19;;;;;;;11.93;2.85;;;18.10;92.90;;;;;;5094940;28;20029;-59
2023/05/29 12:37:46;;;;;;;8.68;2.80;;;18.30;93.90;;;;;;5056526;28;20036;-59
2023/05/29 12:40:20;;;;;;;12.25;3.17;;;18.40;93.30;;;;;;5075055;28;20490;-61
2023/05/29 12:42:47;;;;;;;13.02;3.03;;;18.10;92.90;;;;;;5071144;28;20048;-59
2023/05/29 12:45:14;;;;;;;11.77;3.20;;;18.00;92.70;;;;;;5073202;28;20569;-58
2023/05/29 12:47:49;;;;;;;11.90;3.90;;;18.20;93.20;;;;;;5057352;28;20406;-58
2023/05/29 12:50:27;;;;;;;13.93;3.22;;;18.40;92.80;;;;;;5088307;28;20047;-60
2023/05/29 12:52:56;;;;;;;12.25;3.10;;;18.50;93.20;;;;;;5092738;28;20043;-58
2023/05/29 12:55:23;;;;;;;11.05;3.28;;;18.40;93.40;;;;;;5080026;28;20036;-58